Bernal, New Mexico
Current Conditions -  °F | °C
As of 12:53 PM on Thursday 23 Oct 2014 (Local Time) from KLVS Reporting Station
Clear Clear  
Wind Chill: 69°   Ceiling: Unl
Heat Index: 69°   Visibility: 10mi
Dew Point: 28°   Wind: 7mph
Humidity: 22%   Direction: 150°SSE
Pressure: 30.27"   Gusts: NA
Location:  35.3928°N, 105.316°W
Report Text: KLVS 231853Z AUTO 15006KT 10SM CLR 21/M02 A3027 RMK AO2 SLP167 T02061022
Loading
Personal Weather Stations






























Interactive Weather Map
Tropical Storm Tracking
New forecast layout! Learn more

10-Day Weather Forecast

Advertisements
Track Severe Weather on mobile